Time;durP1;ratioP1;P1;durP2;ratioP2;P2;SDS_P1;SDS_P2;PMS_P1;PMS_P2;Temp;Humidity;BMP_temperature;BMP_pressure;BME280_temperature;BME280_humidity;BME280_pressure;Samples;Min_cycle;Max_cycle;Signal;HPM_P1;HPM_P2
2023/06/24 00:02:13;;;;;;;13.63;7.18;;;16.50;99.90;;;;;;5053175;28;20021;-43
2023/06/24 00:04:39;;;;;;;11.85;7.07;;;16.50;99.90;;;;;;5053250;28;20025;-45
2023/06/24 00:07:06;;;;;;;11.73;7.55;;;16.50;99.90;;;;;;5053117;28;20028;-46
2023/06/24 00:09:32;;;;;;;16.70;7.70;;;16.50;99.90;;;;;;5053134;28;20032;-44
2023/06/24 00:12:01;;;;;;;14.80;7.90;;;16.50;99.90;;;;;;5053138;28;20033;-42
2023/06/24 00:14:27;;;;;;;15.98;7.63;;;16.50;99.90;;;;;;5052792;28;20053;-43
2023/06/24 00:16:54;;;;;;;15.65;8.50;;;16.50;99.90;;;;;;5052602;28;20536;-45
2023/06/24 00:19:26;;;;;;;16.40;8.27;;;16.50;99.90;;;;;;5052600;28;20032;-47
2023/06/24 00:21:53;;;;;;;12.93;7.40;;;16.50;99.90;;;;;;5052867;28;20040;-43
2023/06/24 00:24:25;;;;;;;14.85;8.40;;;16.50;99.90;;;;;;5052709;28;20492;-44
2023/06/24 00:26:54;;;;;;;12.65;7.57;;;16.40;99.90;;;;;;5052965;28;20432;-43
2023/06/24 00:29:20;;;;;;;12.77;7.68;;;16.40;99.90;;;;;;5052809;28;20082;-42
2023/06/24 00:31:46;;;;;;;15.27;7.13;;;16.40;99.90;;;;;;5052748;28;20032;-45
2023/06/24 00:34:11;;;;;;;12.88;7.90;;;16.40;99.90;;;;;;5052663;28;20017;-51
2023/06/24 00:36:38;;;;;;;12.95;7.95;;;16.30;99.90;;;;;;5052482;28;20037;-51
2023/06/24 00:39:04;;;;;;;11.93;7.50;;;16.30;99.90;;;;;;5052720;28;20091;-45
2023/06/24 00:41:31;;;;;;;13.00;7.90;;;16.20;99.90;;;;;;5052595;28;20031;-47
2023/06/24 00:43:58;;;;;;;14.07;7.95;;;16.30;99.90;;;;;;5051519;28;20100;-42
2023/06/24 00:46:27;;;;;;;12.77;7.40;;;16.20;99.90;;;;;;5052547;28;20025;-48
2023/06/24 00:48:56;;;;;;;12.00;7.55;;;16.20;99.90;;;;;;5052198;28;20013;-43
2023/06/24 00:51:26;;;;;;;11.82;7.63;;;16.20;99.90;;;;;;5052436;28;20025;-43
2023/06/24 00:53:53;;;;;;;12.82;6.82;;;16.20;99.90;;;;;;5052489;28;20021;-48
2023/06/24 00:56:21;;;;;;;12.55;7.82;;;16.20;99.90;;;;;;5052211;28;20044;-46
2023/06/24 00:58:47;;;;;;;13.57;7.18;;;16.20;99.90;;;;;;5052112;28;20031;-43
2023/06/24 01:01:14;;;;;;;15.93;7.47;;;16.30;99.90;;;;;;5052086;28;20302;-47
2023/06/24 01:03:40;;;;;;;12.20;7.20;;;16.20;99.90;;;;;;5052007;28;20021;-45
2023/06/24 01:06:06;;;;;;;12.65;6.55;;;16.20;99.90;;;;;;5051962;28;20021;-46
2023/06/24 01:08:31;;;;;;;11.38;6.72;;;16.20;99.90;;;;;;5051998;28;20056;-47
2023/06/24 01:10:57;;;;;;;8.98;6.03;;;16.20;99.90;;;;;;5050728;28;20055;-47
2023/06/24 01:13:23;;;;;;;9.77;5.90;;;16.20;99.90;;;;;;5051803;28;20044;-41
2023/06/24 01:15:49;;;;;;;11.45;6.63;;;16.10;99.90;;;;;;5051627;28;20041;-43
2023/06/24 01:18:31;;;;;;;9.63;5.35;;;16.10;99.90;;;;;;5051837;28;20028;-43
2023/06/24 01:21:07;;;;;;;8.95;5.93;;;16.10;99.90;;;;;;5051624;28;20025;-42
2023/06/24 01:24:07;;;;;;;12.05;6.43;;;16.10;99.90;;;;;;5051732;28;20021;-43
2023/06/24 01:27:25;;;;;;;16.35;7.22;;;16.00;99.90;;;;;;5051294;28;20036;-44
2023/06/24 01:30:03;;;;;;;11.90;6.20;;;16.00;99.90;;;;;;5050302;28;20041;-51
2023/06/24 01:32:44;;;;;;;12.02;6.05;;;16.00;99.90;;;;;;5051336;28;20049;-41
2023/06/24 01:35:17;;;;;;;12.02;5.65;;;16.00;99.90;;;;;;5051552;28;20024;-44
2023/06/24 01:37:51;;;;;;;9.80;6.07;;;16.00;99.90;;;;;;5051432;28;20067;-47
2023/06/24 01:40:26;;;;;;;9.48;6.35;;;16.00;99.90;;;;;;5051219;28;20085;-50
2023/06/24 01:42:53;;;;;;;11.70;6.40;;;15.90;99.90;;;;;;5051180;28;20032;-47
2023/06/24 01:45:42;;;;;;;11.18;6.55;;;15.90;99.90;;;;;;5050838;28;20032;-47
2023/06/24 01:48:17;;;;;;;10.18;5.63;;;16.00;99.90;;;;;;5051255;28;20032;-45
2023/06/24 01:50:57;;;;;;;9.93;6.22;;;15.90;99.90;;;;;;5050855;28;20024;-61
2023/06/24 01:53:23;;;;;;;8.30;5.38;;;15.90;99.90;;;;;;5050748;28;20031;-54
2023/06/24 01:55:50;;;;;;;10.35;5.82;;;15.90;99.90;;;;;;5050949;28;20055;-60
2023/06/24 01:58:19;;;;;;;10.32;5.40;;;15.90;99.90;;;;;;5051062;28;20021;-47
2023/06/24 02:00:45;;;;;;;8.93;5.38;;;15.80;99.90;;;;;;5050734;28;20100;-54
2023/06/24 02:03:11;;;;;;;6.97;4.30;;;15.80;99.90;;;;;;5050918;28;20021;-50
2023/06/24 02:05:40;;;;;;;10.85;5.10;;;15.70;99.90;;;;;;5050733;28;20048;-45
2023/06/24 02:08:09;;;;;;;8.73;5.20;;;15.50;99.90;;;;;;5050639;28;20059;-53
2023/06/24 02:10:39;;;;;;;7.80;4.40;;;15.50;99.90;;;;;;5050936;28;20262;-55
2023/06/24 02:13:07;;;;;;;9.90;5.20;;;15.40;99.90;;;;;;5050726;28;20049;-52
2023/06/24 02:15:35;;;;;;;9.30;4.95;;;15.30;99.90;;;;;;5050668;28;20021;-44
2023/06/24 02:18:02;;;;;;;8.55;4.72;;;15.30;99.90;;;;;;5050236;28;20025;-50
2023/06/24 02:20:30;;;;;;;8.25;4.70;;;15.30;99.90;;;;;;5038465;28;20509;-53
2023/06/24 02:22:58;;;;;;;9.45;4.95;;;15.30;99.90;;;;;;5033394;28;20082;-56
2023/06/24 02:25:25;;;;;;;10.23;5.93;;;15.20;99.90;;;;;;5050559;28;20108;-50
2023/06/24 02:27:53;;;;;;;8.27;5.13;;;15.30;99.90;;;;;;5050679;28;20093;-41
2023/06/24 02:30:21;;;;;;;9.90;5.05;;;15.20;99.90;;;;;;5050382;28;20383;-50
2023/06/24 02:32:47;;;;;;;13.68;6.25;;;15.20;99.90;;;;;;5050586;28;20037;-42
2023/06/24 02:35:13;;;;;;;12.07;6.55;;;15.20;99.90;;;;;;5050076;28;20032;-52
2023/06/24 02:37:38;;;;;;;11.90;5.97;;;15.20;99.90;;;;;;5050488;28;20024;-50
2023/06/24 02:40:07;;;;;;;11.68;6.20;;;15.20;99.90;;;;;;5050220;28;20207;-50
2023/06/24 02:42:32;;;;;;;12.88;6.60;;;15.20;99.90;;;;;;5050547;28;20140;-48
2023/06/24 02:44:58;;;;;;;10.25;5.78;;;15.20;99.90;;;;;;5050412;28;20529;-52
2023/06/24 02:47:24;;;;;;;9.55;5.22;;;15.10;99.90;;;;;;5049035;28;20024;-52
2023/06/24 02:49:51;;;;;;;12.27;6.22;;;15.10;99.90;;;;;;5050384;28;20124;-44
2023/06/24 02:52:17;;;;;;;11.27;6.18;;;15.00;99.90;;;;;;5050351;28;20036;-53
2023/06/24 02:54:44;;;;;;;10.38;5.65;;;15.00;99.90;;;;;;5050300;28;20025;-51
2023/06/24 02:57:10;;;;;;;10.13;5.38;;;14.90;99.90;;;;;;5049893;28;20037;-56
2023/06/24 02:59:37;;;;;;;9.50;5.05;;;14.90;99.90;;;;;;5050426;28;20051;-49
2023/06/24 03:02:04;;;;;;;9.73;5.65;;;14.90;99.90;;;;;;5050058;28;20082;-56
2023/06/24 03:04:30;;;;;;;10.10;5.22;;;14.90;99.90;;;;;;5050331;28;20013;-54
2023/06/24 03:06:57;;;;;;;10.82;5.82;;;14.90;99.90;;;;;;5052885;28;20482;-46
2023/06/24 03:09:23;;;;;;;13.40;6.97;;;14.80;99.90;;;;;;5054070;28;20009;-48
2023/06/24 03:11:48;;;;;;;14.07;6.35;;;14.70;99.90;;;;;;5054123;28;20098;-56
2023/06/24 03:14:14;;;;;;;10.90;6.07;;;14.80;99.90;;;;;;5053880;28;20514;-46
2023/06/24 03:16:40;;;;;;;9.25;5.35;;;14.80;99.90;;;;;;5053844;28;20044;-41
2023/06/24 03:19:05;;;;;;;9.75;5.38;;;14.80;99.90;;;;;;5052160;28;20100;-44
2023/06/24 03:21:31;;;;;;;9.95;5.53;;;14.70;99.90;;;;;;5053887;28;20449;-46
2023/06/24 03:23:58;;;;;;;9.80;5.22;;;14.70;99.90;;;;;;5053708;28;20029;-50
2023/06/24 03:26:31;;;;;;;8.95;5.13;;;14.70;99.90;;;;;;5053875;28;20112;-54
2023/06/24 03:28:56;;;;;;;8.70;5.25;;;14.70;99.90;;;;;;5053615;28;20039;-43
2023/06/24 03:31:23;;;;;;;10.65;4.82;;;14.70;99.90;;;;;;5053843;28;20409;-54
2023/06/24 03:33:48;;;;;;;9.35;5.10;;;14.70;99.90;;;;;;5053534;28;20021;-50
2023/06/24 03:36:14;;;;;;;8.73;5.25;;;14.70;99.90;;;;;;5052310;28;20040;-51
2023/06/24 03:38:40;;;;;;;9.02;5.63;;;14.60;99.90;;;;;;5053419;28;20036;-44
2023/06/24 03:41:06;;;;;;;9.40;5.28;;;14.60;99.90;;;;;;5053765;28;20020;-51
2023/06/24 03:43:31;;;;;;;10.43;5.25;;;14.60;99.90;;;;;;5053398;28;20017;-43
2023/06/24 03:45:57;;;;;;;11.90;5.78;;;14.60;99.90;;;;;;5053205;28;20083;-44
2023/06/24 03:48:23;;;;;;;10.95;6.32;;;14.60;99.90;;;;;;5053695;28;20028;-55
2023/06/24 03:50:48;;;;;;;13.00;6.22;;;14.60;99.90;;;;;;5053434;28;20087;-45
2023/06/24 03:53:14;;;;;;;13.10;5.78;;;14.60;99.90;;;;;;5053236;28;20092;-55
2023/06/24 03:55:39;;;;;;;10.98;6.65;;;14.60;99.90;;;;;;5052797;28;20037;-52
2023/06/24 03:58:05;;;;;;;11.00;6.07;;;14.60;99.90;;;;;;5053050;28;20017;-50
2023/06/24 04:00:31;;;;;;;10.05;5.80;;;14.60;99.90;;;;;;5053050;28;20107;-52
2023/06/24 04:02:56;;;;;;;9.80;5.57;;;14.60;99.90;;;;;;5053082;28;20057;-54
2023/06/24 04:05:22;;;;;;;7.90;4.32;;;14.60;99.90;;;;;;5053645;28;20053;-50
2023/06/24 04:07:52;;;;;;;8.25;4.20;;;14.50;99.90;;;;;;5053737;28;20112;-44
2023/06/24 04:10:17;;;;;;;6.88;3.83;;;14.60;99.90;;;;;;5053356;28;20112;-43
2023/06/24 04:12:44;;;;;;;8.43;4.57;;;14.60;99.90;;;;;;5052987;28;20060;-46
2023/06/24 04:15:10;;;;;;;8.70;4.25;;;14.60;99.90;;;;;;5052713;28;20021;-58
2023/06/24 04:17:35;;;;;;;8.15;4.25;;;14.70;99.90;;;;;;5051504;28;20035;-57
2023/06/24 04:20:03;;;;;;;9.32;4.65;;;14.70;99.90;;;;;;5052662;28;20104;-57
2023/06/24 04:22:30;;;;;;;10.25;5.28;;;14.80;99.90;;;;;;5052875;28;20040;-46
2023/06/24 04:24:55;;;;;;;7.00;4.03;;;14.80;99.90;;;;;;5052771;28;20017;-53
2023/06/24 04:27:21;;;;;;;7.78;4.45;;;14.90;99.90;;;;;;5052569;28;20154;-44
2023/06/24 04:29:46;;;;;;;9.32;4.53;;;14.90;99.90;;;;;;5052559;28;20043;-43
2023/06/24 04:32:12;;;;;;;6.65;4.05;;;15.00;99.90;;;;;;5052345;28;20029;-54
2023/06/24 04:34:38;;;;;;;7.13;4.20;;;15.00;99.90;;;;;;5052580;28;20117;-56
2023/06/24 04:37:03;;;;;;;8.35;4.40;;;15.00;99.90;;;;;;5052275;28;20036;-47
2023/06/24 04:39:29;;;;;;;8.63;4.00;;;15.10;99.90;;;;;;5052178;28;20075;-52
2023/06/24 04:41:55;;;;;;;7.55;4.15;;;15.10;99.90;;;;;;5052294;28;20128;-49
2023/06/24 04:44:20;;;;;;;6.97;3.67;;;15.20;99.90;;;;;;5050842;28;20068;-54
2023/06/24 04:46:46;;;;;;;7.55;4.30;;;15.20;99.90;;;;;;5052482;28;20021;-51
2023/06/24 04:49:12;;;;;;;7.35;4.47;;;15.20;99.90;;;;;;5052291;28;20466;-50
2023/06/24 04:51:37;;;;;;;8.10;4.78;;;15.30;99.90;;;;;;5052154;28;20037;-52
2023/06/24 04:54:03;;;;;;;9.20;5.45;;;15.40;99.90;;;;;;5052071;28;20111;-58
2023/06/24 04:56:29;;;;;;;8.43;5.15;;;15.50;99.90;;;;;;5051908;28;20040;-49
2023/06/24 04:58:55;;;;;;;11.95;5.00;;;15.50;99.90;;;;;;5051993;28;20043;-53
2023/06/24 05:01:22;;;;;;;10.93;6.40;;;15.60;99.90;;;;;;5051844;28;20470;-53
2023/06/24 05:03:48;;;;;;;9.15;5.65;;;15.60;99.90;;;;;;5051706;28;20029;-42
2023/06/24 05:06:13;;;;;;;10.95;6.55;;;15.60;99.90;;;;;;5051481;28;20047;-48
2023/06/24 05:08:39;;;;;;;11.15;6.70;;;15.60;99.90;;;;;;5039882;28;20049;-41
2023/06/24 05:11:05;;;;;;;10.95;6.32;;;15.60;99.90;;;;;;5045318;28;20488;-49
2023/06/24 05:13:31;;;;;;;13.20;6.53;;;15.70;99.90;;;;;;5039830;28;20041;-53
2023/06/24 05:15:56;;;;;;;11.27;6.68;;;15.80;99.90;;;;;;5043503;28;20051;-57
2023/06/24 05:18:22;;;;;;;11.45;6.60;;;15.90;99.90;;;;;;5042852;28;20023;-46
2023/06/24 05:20:47;;;;;;;12.00;7.43;;;16.00;99.90;;;;;;5041538;28;20044;-49
2023/06/24 05:23:13;;;;;;;12.60;7.57;;;16.10;99.90;;;;;;5044707;28;20604;-54
2023/06/24 05:25:39;;;;;;;12.57;7.20;;;16.20;99.90;;;;;;5039409;28;20103;-51
2023/06/24 05:28:04;;;;;;;18.83;7.85;;;16.30;99.90;;;;;;5051227;28;20398;-45
2023/06/24 05:30:30;;;;;;;12.95;7.47;;;16.40;99.90;;;;;;5051220;28;20466;-57
2023/06/24 05:32:56;;;;;;;14.75;8.30;;;16.40;99.90;;;;;;5051550;28;20044;-45
2023/06/24 05:35:21;;;;;;;13.88;8.00;;;16.50;99.90;;;;;;5051395;28;20017;-55
2023/06/24 05:37:47;;;;;;;15.52;8.38;;;16.60;99.90;;;;;;5051470;28;20037;-52
2023/06/24 05:40:13;;;;;;;17.58;7.78;;;16.60;99.90;;;;;;5051247;28;20013;-48
2023/06/24 05:42:39;;;;;;;15.80;7.97;;;16.70;99.90;;;;;;5051253;28;20508;-55
2023/06/24 05:45:06;;;;;;;12.23;7.20;;;16.80;99.90;;;;;;5051503;28;20025;-47
2023/06/24 05:47:32;;;;;;;10.80;7.20;;;16.80;99.90;;;;;;5051039;28;20021;-54
2023/06/24 05:49:58;;;;;;;11.60;7.63;;;16.90;99.90;;;;;;5051269;28;20021;-56
2023/06/24 05:52:24;;;;;;;13.25;7.43;;;17.00;99.90;;;;;;5051211;28;20075;-52
2023/06/24 05:54:49;;;;;;;16.75;8.27;;;17.10;99.90;;;;;;5051212;28;20025;-51
2023/06/24 05:57:15;;;;;;;14.10;7.85;;;17.20;99.90;;;;;;5050852;28;20039;-55
2023/06/24 05:59:41;;;;;;;11.45;7.78;;;17.30;99.90;;;;;;5051101;28;20031;-49
2023/06/24 06:02:06;;;;;;;12.02;7.60;;;17.40;99.90;;;;;;5050723;28;20017;-55
2023/06/24 06:04:32;;;;;;;13.23;7.88;;;17.50;99.90;;;;;;5051047;28;20021;-55
2023/06/24 06:06:58;;;;;;;13.90;8.32;;;17.60;99.90;;;;;;5050734;28;20482;-47
2023/06/24 06:09:23;;;;;;;12.77;7.80;;;17.70;99.90;;;;;;5050761;28;20041;-47
2023/06/24 06:11:49;;;;;;;11.82;7.85;;;17.90;99.90;;;;;;5050753;28;20485;-49
2023/06/24 06:14:15;;;;;;;14.15;8.63;;;18.00;99.90;;;;;;5050356;28;20044;-50
2023/06/24 06:16:41;;;;;;;15.00;8.18;;;18.20;99.90;;;;;;5042065;28;20073;-44
2023/06/24 06:19:07;;;;;;;12.98;8.23;;;18.30;99.90;;;;;;5051897;28;20048;-45
2023/06/24 06:21:33;;;;;;;12.88;8.43;;;18.30;99.90;;;;;;5036676;28;20017;-47
2023/06/24 06:23:58;;;;;;;12.20;7.72;;;18.40;99.90;;;;;;5044728;28;20017;-42
2023/06/24 06:26:24;;;;;;;14.05;7.90;;;18.50;99.90;;;;;;5040388;28;20421;-42
2023/06/24 06:28:49;;;;;;;15.02;8.30;;;18.50;99.90;;;;;;5050610;28;20021;-43
2023/06/24 06:31:16;;;;;;;12.02;7.28;;;18.60;99.90;;;;;;5039874;28;20033;-47
2023/06/24 06:33:42;;;;;;;11.40;7.38;;;18.80;99.90;;;;;;5046147;28;20039;-42
2023/06/24 06:36:07;;;;;;;12.70;7.40;;;18.90;99.90;;;;;;5049358;28;20033;-42
2023/06/24 06:38:33;;;;;;;11.25;7.20;;;19.30;99.90;;;;;;5048823;28;20051;-42
2023/06/24 06:40:59;;;;;;;13.05;7.05;;;19.40;99.90;;;;;;5048811;28;20425;-42
2023/06/24 06:43:25;;;;;;;9.82;6.15;;;19.70;99.90;;;;;;5050082;28;20017;-42
2023/06/24 06:45:51;;;;;;;9.27;5.85;;;20.10;99.90;;;;;;5046383;28;20026;-44
2023/06/24 06:48:16;;;;;;;9.10;5.68;;;20.40;99.90;;;;;;5049083;28;20428;-42
2023/06/24 06:50:42;;;;;;;9.48;5.95;;;20.60;99.90;;;;;;5043816;28;20075;-51
2023/06/24 06:53:07;;;;;;;9.10;5.90;;;21.40;99.90;;;;;;5031061;28;20109;-43
2023/06/24 06:55:33;;;;;;;8.20;4.80;;;22.20;99.90;;;;;;5030602;28;20032;-42
2023/06/24 06:57:59;;;;;;;8.32;5.10;;;22.80;99.90;;;;;;5039839;28;20184;-44
2023/06/24 07:00:24;;;;;;;6.50;4.45;;;23.10;99.90;;;;;;5046746;28;20051;-42
2023/06/24 07:02:50;;;;;;;6.85;4.55;;;23.10;99.90;;;;;;5030815;28;20123;-46
2023/06/24 07:05:16;;;;;;;8.98;4.50;;;23.30;99.90;;;;;;5030599;28;20159;-44
2023/06/24 07:07:44;;;;;;;6.25;4.22;;;23.80;99.90;;;;;;5031179;28;20037;-43
2023/06/24 07:10:10;;;;;;;6.80;4.70;;;24.50;99.90;;;;;;5030499;28;20044;-43
2023/06/24 07:12:35;;;;;;;7.70;4.47;;;25.00;99.90;;;;;;5030574;28;20482;-45
2023/06/24 07:15:01;;;;;;;7.43;4.57;;;25.50;99.90;;;;;;5030695;28;20028;-51
2023/06/24 07:17:27;;;;;;;6.10;4.07;;;25.70;99.90;;;;;;5062829;28;20111;-43
2023/06/24 07:19:52;;;;;;;7.03;3.83;;;25.90;99.90;;;;;;5030225;28;20386;-44
2023/06/24 07:22:18;;;;;;;5.65;3.70;;;26.30;99.90;;;;;;5030626;28;20437;-44
2023/06/24 07:24:43;;;;;;;6.20;3.40;;;26.60;99.90;;;;;;5030516;28;20072;-42
2023/06/24 07:27:09;;;;;;;5.55;3.28;;;27.00;99.90;;;;;;5036442;28;20104;-43
2023/06/24 07:29:35;;;;;;;5.95;3.40;;;27.30;99.90;;;;;;5050032;28;20028;-44
2023/06/24 07:32:01;;;;;;;4.30;2.80;;;27.40;99.90;;;;;;5049433;28;20025;-43
2023/06/24 07:34:26;;;;;;;5.93;3.20;;;27.50;99.90;;;;;;5047846;28;20025;-46
2023/06/24 07:36:52;;;;;;;6.35;3.30;;;27.80;99.90;;;;;;5035296;28;20099;-46
2023/06/24 07:39:18;;;;;;;4.90;2.78;;;28.10;99.90;;;;;;5039014;28;20034;-44
2023/06/24 07:41:43;;;;;;;4.95;3.67;;;28.10;99.90;;;;;;5035823;28;20095;-43
2023/06/24 07:44:09;;;;;;;6.68;3.22;;;28.10;99.90;;;;;;5030508;28;20053;-43
2023/06/24 07:46:35;;;;;;;4.43;2.80;;;28.30;99.90;;;;;;5036524;28;20025;-47
2023/06/24 07:49:00;;;;;;;4.35;3.08;;;28.30;99.90;;;;;;5035427;28;20482;-43
2023/06/24 07:51:27;;;;;;;6.18;3.78;;;28.60;99.90;;;;;;5037907;28;20074;-44
2023/06/24 07:53:53;;;;;;;3.92;2.60;;;28.90;99.90;;;;;;5044969;28;20104;-47
2023/06/24 07:56:18;;;;;;;4.85;2.33;;;28.80;99.90;;;;;;5043350;28;20172;-43
2023/06/24 07:58:44;;;;;;;3.85;2.58;;;28.70;99.90;;;;;;5041444;28;20025;-44
2023/06/24 08:01:10;;;;;;;5.03;2.53;;;28.70;99.90;;;;;;5036270;28;20037;-43
2023/06/24 08:03:37;;;;;;;4.75;2.80;;;28.70;99.90;;;;;;5037246;28;20033;-43
2023/06/24 08:06:03;;;;;;;5.55;3.05;;;29.00;99.90;;;;;;5052351;28;20024;-43
2023/06/24 08:08:28;;;;;;;4.50;3.10;;;29.10;99.90;;;;;;5041079;28;20061;-43
2023/06/24 08:10:54;;;;;;;4.78;2.20;;;29.10;99.90;;;;;;5040695;28;20122;-46
2023/06/24 08:13:20;;;;;;;3.25;2.17;;;29.30;99.90;;;;;;5045990;28;20574;-43
2023/06/24 08:15:46;;;;;;;6.03;2.47;;;29.40;99.90;;;;;;5046284;28;20041;-48
2023/06/24 08:18:11;;;;;;;4.35;2.35;;;29.40;99.90;;;;;;5038865;28;20033;-55
2023/06/24 08:20:37;;;;;;;3.88;2.10;;;29.40;99.90;;;;;;5039828;28;20394;-43
2023/06/24 08:23:03;;;;;;;5.38;2.40;;;29.60;99.90;;;;;;5037123;28;20382;-43
2023/06/24 08:25:28;;;;;;;4.15;2.30;;;29.70;99.90;;;;;;5038951;28;20038;-42
2023/06/24 08:27:54;;;;;;;3.55;2.10;;;30.00;99.90;;;;;;5048803;28;20032;-42
2023/06/24 08:30:19;;;;;;;3.00;2.25;;;29.90;99.90;;;;;;5052614;28;20052;-46
2023/06/24 08:32:45;;;;;;;3.78;2.28;;;30.10;99.90;;;;;;5052647;28;20040;-44
2023/06/24 08:35:11;;;;;;;3.33;2.00;;;30.40;99.90;;;;;;5052430;28;20052;-52
2023/06/24 08:37:37;;;;;;;3.63;2.45;;;30.50;99.90;;;;;;5049163;28;20036;-47
2023/06/24 08:40:04;;;;;;;3.83;2.00;;;30.30;99.90;;;;;;5051417;28;20021;-44
2023/06/24 08:42:30;;;;;;;4.43;2.10;;;30.40;99.90;;;;;;5036368;28;20052;-47
2023/06/24 08:44:56;;;;;;;3.88;2.22;;;30.60;99.90;;;;;;5037878;28;20057;-43
2023/06/24 08:47:24;;;;;;;4.13;2.10;;;30.70;99.90;;;;;;5044136;28;20064;-42
2023/06/24 08:49:57;;;;;;;4.13;2.00;;;30.90;99.90;;;;;;5036231;28;20474;-47
2023/06/24 08:52:27;;;;;;;5.40;2.40;;;31.00;99.90;;;;;;5041286;28;20029;-43
2023/06/24 08:54:56;;;;;;;2.70;1.67;;;30.80;99.90;;;;;;5032440;28;20067;-44
2023/06/24 08:57:23;;;;;;;3.47;2.08;;;30.50;99.90;;;;;;5032101;28;20033;-47
2023/06/24 08:59:49;;;;;;;4.40;2.30;;;30.60;99.90;;;;;;5032530;28;20029;-50
2023/06/24 09:02:14;;;;;;;4.97;2.53;;;30.80;99.90;;;;;;5036955;28;20437;-43
2023/06/24 09:04:40;;;;;;;4.38;2.50;;;30.80;99.90;;;;;;5044771;28;20029;-45
2023/06/24 09:07:06;;;;;;;3.58;2.25;;;30.90;99.90;;;;;;5045168;28;20094;-52
2023/06/24 09:09:32;;;;;;;4.28;2.38;;;30.80;99.90;;;;;;5040894;28;20104;-50
2023/06/24 09:12:01;;;;;;;4.40;2.35;;;30.90;99.90;;;;;;5044928;28;20029;-54
2023/06/24 09:14:30;;;;;;;4.28;2.50;;;30.90;99.90;;;;;;5041932;28;20049;-51
2023/06/24 09:16:58;;;;;;;3.22;2.10;;;30.40;99.90;;;;;;5043623;28;20037;-55
2023/06/24 09:19:28;;;;;;;4.13;2.47;;;30.70;99.90;;;;;;5043159;28;20040;-49
2023/06/24 09:21:53;;;;;;;3.85;2.33;;;30.70;99.90;;;;;;5042318;28;20037;-43
2023/06/24 09:24:19;;;;;;;3.45;2.20;;;30.70;99.90;;;;;;5044590;28;20028;-50
2023/06/24 09:26:45;;;;;;;4.20;2.28;;;30.30;99.90;;;;;;5042583;28;20032;-50
2023/06/24 09:29:12;;;;;;;3.90;2.42;;;29.50;99.90;;;;;;5051612;28;20025;-47
2023/06/24 09:31:49;;;;;;;3.28;2.30;;;29.00;99.90;;;;;;5047321;28;20037;-47
2023/06/24 09:34:15;;;;;;;5.38;2.20;;;28.50;99.90;;;;;;5042651;28;20389;-46
2023/06/24 09:36:50;;;;;;;4.78;2.33;;;28.30;99.90;;;;;;5034725;28;20467;-43
2023/06/24 09:39:16;;;;;;;4.47;2.67;;;28.90;99.90;;;;;;5038356;28;20060;-54
2023/06/24 09:41:45;;;;;;;4.53;2.42;;;29.30;99.90;;;;;;5050105;28;20059;-44
2023/06/24 09:44:11;;;;;;;3.75;2.55;;;29.70;99.90;;;;;;5031939;28;20087;-50
2023/06/24 09:46:37;;;;;;;4.43;2.25;;;30.00;99.90;;;;;;5031994;28;20021;-44
2023/06/24 09:49:06;;;;;;;4.03;2.40;;;30.60;99.90;;;;;;5045001;28;20025;-44
2023/06/24 09:51:55;;;;;;;5.28;2.65;;;30.70;99.90;;;;;;5048731;28;20428;-43
2023/06/24 09:54:22;;;;;;;3.00;2.00;;;30.80;99.90;;;;;;5046007;28;20033;-48
2023/06/24 09:56:53;;;;;;;4.43;2.47;;;30.70;99.90;;;;;;5047045;28;20043;-43
2023/06/24 09:59:22;;;;;;;4.05;2.33;;;30.80;99.90;;;;;;5047000;28;20049;-49
2023/06/24 10:01:51;;;;;;;3.50;2.38;;;31.00;99.90;;;;;;5048455;28;20083;-47
2023/06/24 10:04:21;;;;;;;3.42;2.10;;;31.30;99.90;;;;;;5039728;28;20036;-52
2023/06/24 10:06:47;;;;;;;5.53;2.40;;;31.30;99.90;;;;;;5045133;28;20032;-49
2023/06/24 10:09:16;;;;;;;5.10;2.70;;;31.60;99.90;;;;;;5043002;28;20028;-43
2023/06/24 10:11:43;;;;;;;3.78;2.30;;;31.70;99.90;;;;;;5035862;28;20588;-51
2023/06/24 10:14:08;;;;;;;6.13;2.25;;;32.00;99.90;;;;;;5043508;28;20518;-49
2023/06/24 10:16:34;;;;;;;4.65;2.22;;;31.90;99.90;;;;;;5045802;28;20039;-48
2023/06/24 10:19:04;;;;;;;3.65;2.17;;;32.00;99.90;;;;;;5049014;28;20035;-47
2023/06/24 10:22:12;;;;;;;3.55;2.50;;;32.20;99.90;;;;;;5041273;28;20021;-47
2023/06/24 10:24:42;;;;;;;3.67;2.10;;;32.40;99.80;;;;;;5044813;28;20041;-54
2023/06/24 10:27:14;;;;;;;3.92;2.50;;;32.40;99.90;;;;;;5046495;28;20025;-45
2023/06/24 10:29:44;;;;;;;4.40;2.40;;;32.20;99.80;;;;;;5050705;28;20037;-42
2023/06/24 10:32:09;;;;;;;3.53;2.13;;;32.00;99.10;;;;;;5043510;28;20016;-47
2023/06/24 10:34:41;;;;;;;2.90;1.98;;;31.90;99.90;;;;;;5045230;28;20029;-45
2023/06/24 10:37:14;;;;;;;4.05;2.00;;;31.80;99.60;;;;;;5039427;28;20029;-45
2023/06/24 10:39:50;;;;;;;3.60;2.08;;;31.80;99.90;;;;;;5038452;28;20025;-43
2023/06/24 10:42:30;;;;;;;3.92;2.17;;;31.70;99.90;;;;;;5035482;28;20124;-44
2023/06/24 10:45:14;;;;;;;3.13;2.08;;;31.60;99.90;;;;;;5049356;28;20044;-49
2023/06/24 10:47:42;;;;;;;3.22;2.00;;;31.60;99.90;;;;;;5034121;28;20058;-43
2023/06/24 10:50:09;;;;;;;3.75;2.22;;;31.40;99.30;;;;;;5045747;28;20028;-44
2023/06/24 10:52:43;;;;;;;3.13;2.10;;;31.50;99.10;;;;;;5043216;28;20079;-43
2023/06/24 10:55:09;;;;;;;3.58;2.50;;;31.60;99.90;;;;;;5046045;28;20029;-46
2023/06/24 10:57:35;;;;;;;2.90;2.13;;;31.70;99.90;;;;;;5046745;28;20045;-45
2023/06/24 11:00:03;;;;;;;3.33;2.35;;;31.80;99.90;;;;;;5040724;28;20560;-44
2023/06/24 11:02:29;;;;;;;3.63;2.10;;;32.00;99.10;;;;;;5035990;28;20031;-45
2023/06/24 11:04:59;;;;;;;2.63;1.90;;;32.00;99.90;;;;;;5032349;28;20112;-44
2023/06/24 11:07:26;;;;;;;3.28;1.88;;;32.10;98.70;;;;;;5048323;28;20021;-43
2023/06/24 11:09:53;;;;;;;2.65;1.73;;;31.80;97.40;;;;;;5042280;28;20025;-44
2023/06/24 11:12:23;;;;;;;4.45;2.50;;;31.80;98.40;;;;;;5044214;28;20174;-46
2023/06/24 11:14:49;;;;;;;3.53;2.20;;;31.80;99.10;;;;;;5032151;28;20060;-47
2023/06/24 11:17:14;;;;;;;3.10;1.90;;;31.60;97.80;;;;;;5042771;28;20041;-44
2023/06/24 11:19:40;;;;;;;3.70;1.88;;;31.40;97.70;;;;;;5043195;28;20040;-49
2023/06/24 11:22:07;;;;;;;3.92;2.60;;;31.20;98.50;;;;;;5048838;28;20056;-49
2023/06/24 11:24:34;;;;;;;4.20;2.55;;;31.20;99.90;;;;;;5045402;28;20960;-45
2023/06/24 11:26:59;;;;;;;4.55;2.50;;;31.60;99.90;;;;;;5051133;28;20025;-45
2023/06/24 11:29:29;;;;;;;4.55;2.35;;;31.80;99.90;;;;;;5053158;28;20112;-48
2023/06/24 11:31:54;;;;;;;4.15;2.58;;;31.80;99.90;;;;;;5052364;28;20049;-44
2023/06/24 11:34:21;;;;;;;3.65;2.30;;;31.60;99.50;;;;;;5048760;28;20122;-46
2023/06/24 11:36:48;;;;;;;5.57;2.75;;;31.30;99.90;;;;;;5039508;28;20174;-48
2023/06/24 11:39:23;;;;;;;3.88;2.50;;;31.00;99.90;;;;;;5052853;28;20030;-43
2023/06/24 11:41:49;;;;;;;4.10;2.10;;;31.10;99.90;;;;;;5042325;28;20025;-43
2023/06/24 11:44:16;;;;;;;4.10;2.50;;;31.30;99.90;;;;;;5049289;28;20492;-47
2023/06/24 11:46:42;;;;;;;3.10;2.30;;;31.20;99.90;;;;;;5046999;28;20087;-47
2023/06/24 11:49:08;;;;;;;3.92;2.47;;;31.20;99.90;;;;;;5044991;28;20473;-44
2023/06/24 11:51:35;;;;;;;4.32;2.33;;;31.10;99.90;;;;;;5048234;28;20017;-44
2023/06/24 11:54:05;;;;;;;5.07;2.75;;;31.00;99.90;;;;;;5042805;28;20076;-44
2023/06/24 11:56:37;;;;;;;4.50;2.42;;;30.90;99.90;;;;;;5049407;28;20033;-44
2023/06/24 11:59:17;;;;;;;3.83;2.38;;;30.90;99.90;;;;;;5044929;28;20060;-47
2023/06/24 12:01:43;;;;;;;3.70;2.28;;;30.60;98.50;;;;;;5042942;28;20057;-44
2023/06/24 12:04:15;;;;;;;5.88;2.80;;;30.30;99.90;;;;;;5042260;28;20796;-46
2023/06/24 12:06:41;;;;;;;7.05;2.60;;;30.20;99.90;;;;;;5047794;28;20025;-44
2023/06/24 12:09:08;;;;;;;4.03;2.35;;;29.70;99.60;;;;;;5048799;28;20025;-43
2023/06/24 12:11:34;;;;;;;4.90;2.65;;;29.50;99.90;;;;;;5035378;28;20540;-43
2023/06/24 12:13:59;;;;;;;3.53;2.30;;;29.70;99.90;;;;;;5043234;28;20053;-43
2023/06/24 12:16:26;;;;;;;4.68;2.38;;;29.90;99.90;;;;;;5035567;28;20631;-45
2023/06/24 12:18:52;;;;;;;4.80;2.17;;;29.90;99.90;;;;;;5044451;28;20024;-43
2023/06/24 12:21:17;;;;;;;5.80;2.40;;;29.80;99.90;;;;;;5049440;28;20025;-49
2023/06/24 12:23:43;;;;;;;3.35;2.03;;;29.70;99.90;;;;;;5047512;28;20492;-51
2023/06/24 12:26:09;;;;;;;4.05;2.20;;;29.60;99.90;;;;;;5045471;28;20055;-48
2023/06/24 12:28:35;;;;;;;3.30;2.17;;;29.70;99.90;;;;;;5037594;28;20386;-50
2023/06/24 12:31:00;;;;;;;11.60;2.20;;;29.80;99.90;;;;;;5039399;28;20025;-43
2023/06/24 12:33:26;;;;;;;3.33;2.20;;;29.70;99.90;;;;;;5035171;28;20525;-42
2023/06/24 12:35:51;;;;;;;3.35;2.30;;;29.90;99.90;;;;;;5035047;28;20033;-43
2023/06/24 12:38:17;;;;;;;4.20;2.20;;;29.50;99.90;;;;;;5037413;28;20053;-43
2023/06/24 12:40:43;;;;;;;4.65;2.40;;;29.40;99.90;;;;;;5045323;28;20125;-45
2023/06/24 12:43:09;;;;;;;3.63;2.35;;;29.40;99.90;;;;;;5037227;28;20478;-45
2023/06/24 12:45:34;;;;;;;3.75;2.28;;;29.50;99.90;;;;;;5037802;28;20061;-46